TRA36J EHAM-LEMG
Flight info
| Callsign | TRA36J |
|---|---|
| Flight time | 2h 49m |
| Altitude | 23000 |
| Route | WOODY N872 CIV/N0444F370 N872 MEDIL DCT KOVIN DCT DUCRA DCT RESMI DCT DEKOD DCT DISAK DCT ARKIP DCT ARNAV DCT LMG DCT UVELI DCT OSMOB DCT ARVID DCT PPN DCT NOLSA DCT ALEPO DCT VASUM N10 BAN DCT GOTOR DCT KAMPO DCT MONTO DCT CRISA DCT VULPE |
| Aircraft | B738/M-SDE2E3FGHIJ1RWXY/LB1 |
Departure
| Time | 2026-05-07 10:10 |
|---|---|
| Airport | Amsterdam Airport Schiphol (EHAM) |
Arrival
| Time | 2026-05-07 13:00 |
|---|---|
| Airport | Málaga-Costa del Sol Airport (LEMG) |
| Time | Latitude | Longitude | Altitude | Speed | Heading |
|---|---|---|---|---|---|
| 2026-05-07 09:20 | 52.30506 | 4.76551 | -2 ft | 0 kts | 59° |
| 2026-05-07 09:57 | 52.30504 | 4.76544 | -2 ft | 4 kts | 59° |
| 2026-05-07 09:58 | 52.30490 | 4.76506 | -2 ft | 4 kts | 68° |
| 2026-05-07 09:58 | 52.30487 | 4.76469 | -2 ft | 4 kts | 123° |
| 2026-05-07 09:58 | 52.30490 | 4.76461 | -2 ft | 1 kts | 136° |
| 2026-05-07 10:03 | 52.30484 | 4.76466 | -2 ft | 3 kts | 154° |
| 2026-05-07 10:03 | 52.30436 | 4.76509 | -2 ft | 12 kts | 149° |
| 2026-05-07 10:04 | 52.30348 | 4.76582 | -2 ft | 14 kts | 178° |
| 2026-05-07 10:04 | 52.30280 | 4.76482 | -2 ft | 13 kts | 237° |
| 2026-05-07 10:04 | 52.30233 | 4.76358 | -2 ft | 13 kts | 238° |
| 2026-05-07 10:04 | 52.30179 | 4.76219 | -2 ft | 16 kts | 238° |
| 2026-05-07 10:05 | 52.30110 | 4.76040 | -2 ft | 21 kts | 238° |
| 2026-05-07 10:05 | 52.30025 | 4.75818 | -2 ft | 25 kts | 238° |
| 2026-05-07 10:05 | 52.29928 | 4.75564 | -2 ft | 27 kts | 238° |
| 2026-05-07 10:05 | 52.29839 | 4.75322 | -2 ft | 22 kts | 249° |
| 2026-05-07 10:06 | 52.29890 | 4.75107 | -2 ft | 21 kts | 310° |
| 2026-05-07 10:06 | 52.29986 | 4.74928 | -2 ft | 21 kts | 311° |
| 2026-05-07 10:06 | 52.30083 | 4.74749 | 1 ft | 21 kts | 311° |
| 2026-05-07 10:06 | 52.30179 | 4.74571 | 9 ft | 21 kts | 311° |
| 2026-05-07 10:07 | 52.30273 | 4.74395 | 9 ft | 20 kts | 311° |
| 2026-05-07 10:07 | 52.30359 | 4.74232 | -2 ft | 18 kts | 307° |
| 2026-05-07 10:07 | 52.30373 | 4.74160 | -2 ft | 6 kts | 270° |
| 2026-05-07 10:07 | 52.30349 | 4.74082 | -2 ft | 10 kts | 235° |
| 2026-05-07 10:08 | 52.30284 | 4.73990 | -2 ft | 15 kts | 216° |
| 2026-05-07 10:08 | 52.30232 | 4.73928 | -2 ft | 0 kts | 217° |
| 2026-05-07 10:08 | 52.30231 | 4.73927 | -2 ft | 0 kts | 217° |
| 2026-05-07 10:09 | 52.30222 | 4.73915 | -2 ft | 6 kts | 218° |
| 2026-05-07 10:09 | 52.30188 | 4.73802 | -3 ft | 16 kts | 270° |
| 2026-05-07 10:09 | 52.30213 | 4.73739 | -3 ft | 5 kts | 356° |
| 2026-05-07 10:09 | 52.30252 | 4.73741 | -4 ft | 9 kts | 2° |
| 2026-05-07 10:10 | 52.30579 | 4.73772 | -4 ft | 85 kts | 3° |
| 2026-05-07 10:10 | 52.31407 | 4.73846 | -3 ft | 150 kts | 3° |
| 2026-05-07 10:10 | 52.32605 | 4.73990 | 251 ft | 184 kts | 6° |
| 2026-05-07 10:10 | 52.33815 | 4.74184 | 1532 ft | 165 kts | 9° |
| 2026-05-07 10:11 | 52.34878 | 4.74805 | 2531 ft | 167 kts | 25° |
| 2026-05-07 10:11 | 52.36035 | 4.75648 | 3026 ft | 197 kts | 23° |
| 2026-05-07 10:11 | 52.37183 | 4.77031 | 3459 ft | 217 kts | 56° |
| 2026-05-07 10:11 | 52.37543 | 4.79434 | 4130 ft | 227 kts | 92° |
| 2026-05-07 10:12 | 52.37227 | 4.82008 | 4904 ft | 236 kts | 111° |
| 2026-05-07 10:12 | 52.36206 | 4.84100 | 5705 ft | 242 kts | 144° |
| 2026-05-07 10:12 | 52.34551 | 4.85076 | 6080 ft | 269 kts | 175° |
| 2026-05-07 10:12 | 52.32629 | 4.85093 | 6068 ft | 279 kts | 182° |
| 2026-05-07 10:13 | 52.30688 | 4.84981 | 6082 ft | 279 kts | 181° |
| 2026-05-07 10:13 | 52.28748 | 4.84891 | 6413 ft | 280 kts | 181° |
| 2026-05-07 10:13 | 52.26814 | 4.84830 | 7406 ft | 277 kts | 181° |
| 2026-05-07 10:13 | 52.24881 | 4.84779 | 8408 ft | 279 kts | 181° |
| 2026-05-07 10:14 | 52.22922 | 4.84734 | 9296 ft | 283 kts | 181° |
| 2026-05-07 10:14 | 52.20939 | 4.84674 | 10188 ft | 287 kts | 185° |
| 2026-05-07 10:14 | 52.18953 | 4.83904 | 10656 ft | 306 kts | 200° |
| 2026-05-07 10:14 | 52.16877 | 4.82626 | 10861 ft | 331 kts | 202° |
| 2026-05-07 10:15 | 52.14691 | 4.81201 | 11406 ft | 344 kts | 202° |
| 2026-05-07 10:15 | 52.12586 | 4.79835 | 12145 ft | 348 kts | 202° |
| 2026-05-07 10:15 | 52.10325 | 4.78392 | 12993 ft | 351 kts | 202° |
| 2026-05-07 10:15 | 52.08035 | 4.76953 | 13806 ft | 355 kts | 202° |
| 2026-05-07 10:16 | 52.05715 | 4.75516 | 14546 ft | 359 kts | 202° |
| 2026-05-07 10:16 | 52.03370 | 4.74080 | 15275 ft | 362 kts | 202° |
| 2026-05-07 10:16 | 52.01004 | 4.72639 | 16023 ft | 365 kts | 201° |
| 2026-05-07 10:16 | 51.98613 | 4.71190 | 16751 ft | 369 kts | 201° |
| 2026-05-07 10:17 | 51.96229 | 4.69749 | 17447 ft | 372 kts | 201° |
| 2026-05-07 10:17 | 51.93756 | 4.68257 | 18163 ft | 376 kts | 201° |
| 2026-05-07 10:17 | 51.91319 | 4.66789 | 18892 ft | 376 kts | 201° |
| 2026-05-07 10:17 | 51.88880 | 4.65321 | 19740 ft | 372 kts | 201° |
| 2026-05-07 10:18 | 51.86458 | 4.63866 | 20446 ft | 374 kts | 201° |
| 2026-05-07 10:18 | 51.84011 | 4.62395 | 20722 ft | 386 kts | 201° |
| 2026-05-07 10:18 | 51.81469 | 4.60869 | 21170 ft | 393 kts | 201° |
| 2026-05-07 10:18 | 51.78891 | 4.59324 | 21762 ft | 396 kts | 201° |
| 2026-05-07 10:19 | 51.76306 | 4.57778 | 22388 ft | 398 kts | 201° |
| 2026-05-07 10:19 | 51.73693 | 4.56217 | 22890 ft | 403 kts | 201° |
| 2026-05-07 10:19 | 51.71054 | 4.54642 | 23421 ft | 406 kts | 201° |
| 2026-05-07 10:19 | 51.68394 | 4.53056 | 23920 ft | 409 kts | 201° |
| 2026-05-07 10:20 | 51.65717 | 4.51462 | 24393 ft | 411 kts | 201° |
| 2026-05-07 10:20 | 51.63027 | 4.49862 | 24844 ft | 414 kts | 201° |
| 2026-05-07 10:20 | 51.60318 | 4.48253 | 25302 ft | 416 kts | 201° |
| 2026-05-07 10:20 | 51.57601 | 4.46642 | 25742 ft | 418 kts | 201° |
| 2026-05-07 10:21 | 51.54854 | 4.45014 | 26164 ft | 421 kts | 201° |
| 2026-05-07 10:21 | 51.52099 | 4.43384 | 26584 ft | 424 kts | 201° |
| 2026-05-07 10:21 | 51.49324 | 4.41744 | 27012 ft | 426 kts | 201° |
| 2026-05-07 10:21 | 51.46536 | 4.40097 | 27419 ft | 428 kts | 201° |
| 2026-05-07 10:22 | 51.43735 | 4.38446 | 27811 ft | 431 kts | 201° |
| 2026-05-07 10:22 | 51.40907 | 4.36778 | 28182 ft | 433 kts | 202° |
| 2026-05-07 10:22 | 51.38123 | 4.34887 | 28560 ft | 435 kts | 206° |
| 2026-05-07 10:22 | 51.35385 | 4.32795 | 28937 ft | 438 kts | 206° |
| 2026-05-07 10:23 | 51.32635 | 4.30676 | 29298 ft | 440 kts | 206° |
| 2026-05-07 10:23 | 51.29866 | 4.28566 | 29638 ft | 442 kts | 206° |
| 2026-05-07 10:23 | 51.27084 | 4.26444 | 29977 ft | 444 kts | 206° |
| 2026-05-07 10:23 | 51.24289 | 4.24314 | 30327 ft | 445 kts | 206° |
| 2026-05-07 10:24 | 51.21499 | 4.22192 | 30727 ft | 444 kts | 206° |
| 2026-05-07 10:24 | 51.18713 | 4.20079 | 31159 ft | 442 kts | 206° |
| 2026-05-07 10:24 | 51.15931 | 4.18021 | 31557 ft | 441 kts | 203° |
| 2026-05-07 10:24 | 51.13059 | 4.16311 | 31930 ft | 441 kts | 200° |
| 2026-05-07 10:25 | 51.10152 | 4.14754 | 32295 ft | 440 kts | 199° |
| 2026-05-07 10:25 | 51.07246 | 4.13237 | 32673 ft | 440 kts | 199° |
| 2026-05-07 10:25 | 51.04342 | 4.11710 | 33053 ft | 439 kts | 199° |
| 2026-05-07 10:25 | 51.01454 | 4.10167 | 33430 ft | 437 kts | 199° |
| 2026-05-07 10:26 | 50.98577 | 4.08609 | 33807 ft | 437 kts | 199° |
| 2026-05-07 10:26 | 50.95707 | 4.07046 | 34130 ft | 436 kts | 199° |
| 2026-05-07 10:26 | 50.92832 | 4.05479 | 34397 ft | 436 kts | 199° |
| 2026-05-07 10:26 | 50.89959 | 4.03918 | 34666 ft | 436 kts | 199° |
| 2026-05-07 10:27 | 50.87091 | 4.02335 | 34918 ft | 436 kts | 201° |
| 2026-05-07 10:27 | 50.84261 | 4.00599 | 35167 ft | 436 kts | 202° |
| 2026-05-07 10:27 | 50.81452 | 3.98776 | 35429 ft | 436 kts | 203° |
| 2026-05-07 10:27 | 50.78653 | 3.96933 | 35688 ft | 436 kts | 203° |
| 2026-05-07 10:28 | 50.75848 | 3.95097 | 35906 ft | 436 kts | 203° |
| 2026-05-07 10:28 | 50.73041 | 3.93277 | 36160 ft | 436 kts | 202° |
| 2026-05-07 10:28 | 50.70231 | 3.91472 | 36418 ft | 436 kts | 202° |
| 2026-05-07 10:28 | 50.67421 | 3.89677 | 36660 ft | 436 kts | 202° |
| 2026-05-07 10:29 | 50.64608 | 3.87885 | 36884 ft | 436 kts | 202° |
| 2026-05-07 10:29 | 50.61796 | 3.86095 | 37085 ft | 437 kts | 202° |
| 2026-05-07 10:29 | 50.58965 | 3.84296 | 37063 ft | 440 kts | 202° |
| 2026-05-07 10:30 | 50.50515 | 3.78652 | 37062 ft | 436 kts | 204° |
| 2026-05-07 10:30 | 50.44988 | 3.74839 | 37074 ft | 433 kts | 204° |
| 2026-05-07 10:31 | 50.39479 | 3.71081 | 37076 ft | 432 kts | 204° |
| 2026-05-07 10:31 | 50.34003 | 3.67369 | 37072 ft | 431 kts | 204° |
| 2026-05-07 10:32 | 50.28496 | 3.63645 | 37073 ft | 432 kts | 204° |
| 2026-05-07 10:32 | 50.22980 | 3.59923 | 37070 ft | 432 kts | 204° |
| 2026-05-07 10:33 | 50.17449 | 3.56199 | 37068 ft | 433 kts | 204° |
| 2026-05-07 10:33 | 50.11904 | 3.52474 | 37068 ft | 434 kts | 204° |
| 2026-05-07 10:34 | 50.06346 | 3.48749 | 37068 ft | 435 kts | 204° |
| 2026-05-07 10:34 | 50.01715 | 3.45654 | 37066 ft | 436 kts | 204° |
| 2026-05-07 10:35 | 49.96135 | 3.41932 | 37065 ft | 437 kts | 204° |
| 2026-05-07 10:35 | 49.90546 | 3.38214 | 37061 ft | 438 kts | 204° |
| 2026-05-07 10:36 | 49.84944 | 3.34496 | 37064 ft | 438 kts | 204° |
| 2026-05-07 10:36 | 49.79341 | 3.30788 | 37063 ft | 438 kts | 203° |
| 2026-05-07 10:37 | 49.73739 | 3.27089 | 37068 ft | 438 kts | 203° |
| 2026-05-07 10:37 | 49.68138 | 3.23400 | 37064 ft | 437 kts | 203° |
| 2026-05-07 10:38 | 49.62546 | 3.19726 | 37063 ft | 436 kts | 203° |
| 2026-05-07 10:38 | 49.56960 | 3.16064 | 37062 ft | 436 kts | 203° |
| 2026-05-07 10:39 | 49.51381 | 3.12416 | 37061 ft | 435 kts | 203° |
| 2026-05-07 10:39 | 49.46018 | 3.08163 | 37069 ft | 434 kts | 213° |
| 2026-05-07 10:40 | 49.41000 | 3.03004 | 37068 ft | 434 kts | 214° |
| 2026-05-07 10:40 | 49.35997 | 2.97841 | 37057 ft | 434 kts | 214° |
| 2026-05-07 10:41 | 49.31000 | 2.92756 | 37062 ft | 434 kts | 213° |
| 2026-05-07 10:41 | 49.25959 | 2.87669 | 37062 ft | 434 kts | 213° |
| 2026-05-07 10:42 | 49.21090 | 2.82772 | 37068 ft | 435 kts | 213° |
| 2026-05-07 10:42 | 49.16033 | 2.77697 | 37071 ft | 435 kts | 213° |
| 2026-05-07 10:43 | 49.10971 | 2.72628 | 37073 ft | 435 kts | 213° |
| 2026-05-07 10:43 | 49.05899 | 2.67560 | 37077 ft | 436 kts | 213° |
| 2026-05-07 10:44 | 49.00827 | 2.62504 | 37075 ft | 436 kts | 213° |
| 2026-05-07 10:44 | 48.95746 | 2.57453 | 37078 ft | 436 kts | 213° |
| 2026-05-07 10:45 | 48.90664 | 2.52413 | 37073 ft | 436 kts | 213° |
| 2026-05-07 10:45 | 48.85578 | 2.47378 | 37079 ft | 436 kts | 213° |
| 2026-05-07 10:46 | 48.80488 | 2.42350 | 37073 ft | 437 kts | 213° |
| 2026-05-07 10:46 | 48.75394 | 2.37329 | 37077 ft | 436 kts | 213° |
| 2026-05-07 10:47 | 48.70301 | 2.32321 | 37077 ft | 436 kts | 213° |
| 2026-05-07 10:47 | 48.65207 | 2.27324 | 37073 ft | 436 kts | 213° |
| 2026-05-07 10:48 | 48.60114 | 2.22340 | 37073 ft | 436 kts | 213° |
| 2026-05-07 10:48 | 48.54697 | 2.18413 | 37050 ft | 436 kts | 196° |
| 2026-05-07 10:49 | 48.48768 | 2.16462 | 37047 ft | 437 kts | 192° |
| 2026-05-07 10:49 | 48.42814 | 2.14646 | 37046 ft | 437 kts | 192° |
| 2026-05-07 10:50 | 48.36867 | 2.12751 | 37049 ft | 437 kts | 193° |
| 2026-05-07 10:50 | 48.30919 | 2.10852 | 37045 ft | 437 kts | 191° |
| 2026-05-07 10:51 | 48.24854 | 2.10569 | 37039 ft | 439 kts | 173° |
| 2026-05-07 10:51 | 48.18822 | 2.11999 | 37049 ft | 439 kts | 172° |
| 2026-05-07 10:52 | 48.12756 | 2.13037 | 37050 ft | 438 kts | 181° |
| 2026-05-07 10:52 | 48.06715 | 2.12074 | 37067 ft | 437 kts | 189° |
| 2026-05-07 10:53 | 48.00691 | 2.10809 | 37074 ft | 437 kts | 188° |
| 2026-05-07 10:53 | 47.94689 | 2.09607 | 37076 ft | 439 kts | 188° |
| 2026-05-07 10:54 | 47.88624 | 2.08436 | 37077 ft | 440 kts | 188° |
| 2026-05-07 10:54 | 47.82541 | 2.07272 | 37076 ft | 441 kts | 188° |
| 2026-05-07 10:55 | 47.76442 | 2.06106 | 37064 ft | 442 kts | 188° |
| 2026-05-07 10:55 | 47.70344 | 2.04942 | 37056 ft | 442 kts | 188° |
| 2026-05-07 10:56 | 47.64265 | 2.03737 | 37037 ft | 439 kts | 192° |
| 2026-05-07 10:56 | 47.58510 | 2.00980 | 37044 ft | 434 kts | 202° |
| 2026-05-07 10:57 | 47.52927 | 1.97640 | 37034 ft | 432 kts | 202° |
| 2026-05-07 10:57 | 47.47348 | 1.94350 | 37039 ft | 431 kts | 202° |
| 2026-05-07 10:58 | 47.41760 | 1.91109 | 37046 ft | 432 kts | 202° |
| 2026-05-07 10:58 | 47.36153 | 1.87877 | 37052 ft | 434 kts | 202° |
| 2026-05-07 10:59 | 47.30517 | 1.84635 | 37051 ft | 436 kts | 202° |
| 2026-05-07 10:59 | 47.24854 | 1.81382 | 37054 ft | 438 kts | 202° |
| 2026-05-07 11:00 | 47.19199 | 1.78146 | 37049 ft | 440 kts | 201° |
| 2026-05-07 11:00 | 47.13469 | 1.74915 | 37043 ft | 441 kts | 201° |
| 2026-05-07 11:01 | 47.07761 | 1.71716 | 37034 ft | 438 kts | 201° |
| 2026-05-07 11:01 | 47.02086 | 1.68537 | 37040 ft | 436 kts | 201° |
| 2026-05-07 11:02 | 46.96436 | 1.65376 | 37046 ft | 434 kts | 201° |
| 2026-05-07 11:02 | 46.90803 | 1.62230 | 37045 ft | 433 kts | 201° |
| 2026-05-07 11:03 | 46.85179 | 1.59096 | 37045 ft | 433 kts | 201° |
| 2026-05-07 11:03 | 46.79547 | 1.55964 | 37052 ft | 434 kts | 201° |
| 2026-05-07 11:04 | 46.73895 | 1.52829 | 37042 ft | 436 kts | 201° |
| 2026-05-07 11:04 | 46.68217 | 1.49686 | 37039 ft | 437 kts | 201° |
| 2026-05-07 11:05 | 46.62516 | 1.46538 | 37035 ft | 439 kts | 201° |
| 2026-05-07 11:05 | 46.56795 | 1.43386 | 37023 ft | 440 kts | 201° |
| 2026-05-07 11:06 | 46.51065 | 1.40236 | 37020 ft | 441 kts | 201° |
| 2026-05-07 11:06 | 46.45323 | 1.37087 | 37019 ft | 441 kts | 201° |
| 2026-05-07 11:07 | 46.39579 | 1.33944 | 37015 ft | 441 kts | 201° |
| 2026-05-07 11:07 | 46.33836 | 1.30808 | 37018 ft | 441 kts | 201° |
| 2026-05-07 11:08 | 46.28100 | 1.27683 | 37009 ft | 440 kts | 201° |
| 2026-05-07 11:08 | 46.22374 | 1.24570 | 37006 ft | 439 kts | 201° |
| 2026-05-07 11:09 | 46.16659 | 1.21471 | 37006 ft | 438 kts | 201° |
| 2026-05-07 11:09 | 46.10953 | 1.18383 | 37016 ft | 438 kts | 201° |
| 2026-05-07 11:10 | 46.05251 | 1.15303 | 37017 ft | 437 kts | 201° |
| 2026-05-07 11:10 | 45.99563 | 1.12238 | 37020 ft | 437 kts | 201° |
| 2026-05-07 11:11 | 45.93875 | 1.09179 | 37024 ft | 436 kts | 201° |
| 2026-05-07 11:11 | 45.88181 | 1.06123 | 37028 ft | 437 kts | 201° |
| 2026-05-07 11:12 | 45.82560 | 1.02941 | 37005 ft | 437 kts | 208° |
| 2026-05-07 11:12 | 45.77572 | 0.97977 | 37024 ft | 434 kts | 221° |
| 2026-05-07 11:13 | 45.72973 | 0.92376 | 37005 ft | 434 kts | 221° |
| 2026-05-07 11:13 | 45.68404 | 0.86836 | 37007 ft | 433 kts | 221° |
| 2026-05-07 11:14 | 45.63790 | 0.81307 | 37005 ft | 433 kts | 220° |
| 2026-05-07 11:14 | 45.59162 | 0.75800 | 37007 ft | 433 kts | 220° |
| 2026-05-07 11:15 | 45.54534 | 0.70307 | 37006 ft | 433 kts | 220° |
| 2026-05-07 11:15 | 45.49907 | 0.64828 | 37013 ft | 432 kts | 220° |
| 2026-05-07 11:16 | 45.45284 | 0.59364 | 37007 ft | 432 kts | 220° |
| 2026-05-07 11:16 | 45.40662 | 0.53912 | 37012 ft | 431 kts | 220° |
| 2026-05-07 11:17 | 45.36046 | 0.48480 | 37014 ft | 430 kts | 220° |
| 2026-05-07 11:17 | 45.31434 | 0.43065 | 37014 ft | 430 kts | 220° |
| 2026-05-07 11:18 | 45.26825 | 0.37664 | 37014 ft | 429 kts | 220° |
| 2026-05-07 11:18 | 45.22218 | 0.32277 | 37020 ft | 429 kts | 220° |
| 2026-05-07 11:19 | 45.17611 | 0.26902 | 37013 ft | 429 kts | 220° |
| 2026-05-07 11:19 | 45.12999 | 0.21533 | 37012 ft | 429 kts | 220° |
| 2026-05-07 11:20 | 45.08391 | 0.16177 | 37017 ft | 429 kts | 220° |
| 2026-05-07 11:20 | 45.03807 | 0.10864 | 37014 ft | 429 kts | 220° |
| 2026-05-07 11:21 | 44.99191 | 0.05528 | 36880 ft | 427 kts | 220° |
| 2026-05-07 11:21 | 44.94681 | 0.00324 | 36967 ft | 412 kts | 220° |
| 2026-05-07 11:22 | 44.90251 | -0.04780 | 37004 ft | 411 kts | 220° |
| 2026-05-07 11:22 | 44.85814 | -0.09883 | 37020 ft | 412 kts | 220° |
| 2026-05-07 11:23 | 44.81362 | -0.14993 | 37014 ft | 413 kts | 220° |
| 2026-05-07 11:23 | 44.76896 | -0.20108 | 37018 ft | 415 kts | 220° |
| 2026-05-07 11:24 | 44.72409 | -0.25237 | 37015 ft | 416 kts | 220° |
| 2026-05-07 11:24 | 44.68665 | -0.29510 | 37012 ft | 418 kts | 219° |
| 2026-05-07 11:25 | 44.64056 | -0.34489 | 36997 ft | 420 kts | 212° |
| 2026-05-07 11:25 | 44.58898 | -0.38342 | 37012 ft | 421 kts | 208° |
| 2026-05-07 11:26 | 44.53691 | -0.42098 | 37001 ft | 421 kts | 208° |
| 2026-05-07 11:26 | 44.48491 | -0.45876 | 36999 ft | 421 kts | 208° |
| 2026-05-07 11:27 | 44.43306 | -0.49665 | 36999 ft | 420 kts | 208° |
| 2026-05-07 11:27 | 44.38134 | -0.53447 | 36995 ft | 419 kts | 208° |
| 2026-05-07 11:28 | 44.32970 | -0.57218 | 36996 ft | 418 kts | 208° |
| 2026-05-07 11:28 | 44.27810 | -0.60977 | 36993 ft | 418 kts | 208° |
| 2026-05-07 11:29 | 44.22660 | -0.64722 | 36999 ft | 417 kts | 208° |
| 2026-05-07 11:29 | 44.17507 | -0.68461 | 37002 ft | 417 kts | 208° |
| 2026-05-07 11:30 | 44.12362 | -0.72187 | 37006 ft | 417 kts | 208° |
| 2026-05-07 11:30 | 44.07210 | -0.75910 | 37010 ft | 417 kts | 208° |
| 2026-05-07 11:31 | 44.02063 | -0.79623 | 37006 ft | 417 kts | 208° |
| 2026-05-07 11:31 | 43.96913 | -0.83330 | 37003 ft | 417 kts | 208° |
| 2026-05-07 11:32 | 43.89174 | -0.88888 | 36988 ft | 418 kts | 208° |
| 2026-05-07 11:33 | 43.84014 | -0.92584 | 36992 ft | 418 kts | 208° |
| 2026-05-07 11:33 | 43.78845 | -0.96280 | 36992 ft | 418 kts | 208° |
| 2026-05-07 11:34 | 43.73672 | -0.99972 | 36994 ft | 419 kts | 208° |
| 2026-05-07 11:34 | 43.68490 | -1.03662 | 36998 ft | 419 kts | 208° |
| 2026-05-07 11:35 | 43.63301 | -1.07350 | 37000 ft | 420 kts | 208° |
| 2026-05-07 11:35 | 43.58135 | -1.11015 | 36972 ft | 420 kts | 208° |
| 2026-05-07 11:36 | 43.52929 | -1.14701 | 36969 ft | 421 kts | 208° |
| 2026-05-07 11:36 | 43.47722 | -1.18380 | 36969 ft | 421 kts | 208° |
| 2026-05-07 11:37 | 43.42513 | -1.22054 | 36965 ft | 420 kts | 207° |
| 2026-05-07 11:37 | 43.37308 | -1.25717 | 36967 ft | 420 kts | 207° |
| 2026-05-07 11:38 | 43.32107 | -1.29372 | 36959 ft | 420 kts | 207° |
| 2026-05-07 11:38 | 43.26912 | -1.33015 | 36973 ft | 419 kts | 207° |
| 2026-05-07 11:39 | 43.21720 | -1.36649 | 36962 ft | 419 kts | 207° |
| 2026-05-07 11:39 | 43.16537 | -1.40270 | 36977 ft | 418 kts | 207° |
| 2026-05-07 11:40 | 43.11344 | -1.43893 | 36958 ft | 419 kts | 207° |
| 2026-05-07 11:40 | 43.06184 | -1.47483 | 36960 ft | 419 kts | 207° |
| 2026-05-07 11:41 | 43.00993 | -1.51094 | 36965 ft | 418 kts | 207° |
| 2026-05-07 11:41 | 42.95804 | -1.54702 | 36965 ft | 418 kts | 207° |
| 2026-05-07 11:42 | 42.90614 | -1.58303 | 36957 ft | 419 kts | 207° |
| 2026-05-07 11:42 | 42.85423 | -1.61897 | 36974 ft | 418 kts | 207° |
| 2026-05-07 11:43 | 42.80238 | -1.65481 | 36971 ft | 418 kts | 207° |
| 2026-05-07 11:43 | 42.75057 | -1.69056 | 36965 ft | 417 kts | 207° |
| 2026-05-07 11:44 | 42.69867 | -1.72596 | 36969 ft | 417 kts | 206° |
| 2026-05-07 11:44 | 42.64655 | -1.76087 | 36961 ft | 417 kts | 206° |
| 2026-05-07 11:45 | 42.59449 | -1.79570 | 36962 ft | 417 kts | 206° |
| 2026-05-07 11:45 | 42.54244 | -1.83054 | 36960 ft | 417 kts | 206° |
| 2026-05-07 11:46 | 42.49045 | -1.86531 | 36951 ft | 417 kts | 206° |
| 2026-05-07 11:46 | 42.43844 | -1.90002 | 36960 ft | 416 kts | 206° |
| 2026-05-07 11:47 | 42.38651 | -1.93465 | 36958 ft | 416 kts | 206° |
| 2026-05-07 11:47 | 42.33460 | -1.96924 | 36962 ft | 416 kts | 206° |
| 2026-05-07 11:48 | 42.28273 | -2.00383 | 36962 ft | 416 kts | 206° |
| 2026-05-07 11:48 | 42.23088 | -2.03829 | 36956 ft | 415 kts | 206° |
| 2026-05-07 11:49 | 42.17899 | -2.07269 | 36951 ft | 415 kts | 206° |
| 2026-05-07 11:49 | 42.12715 | -2.10697 | 36952 ft | 415 kts | 206° |
| 2026-05-07 11:50 | 42.07526 | -2.14120 | 36948 ft | 415 kts | 206° |
| 2026-05-07 11:50 | 42.02339 | -2.17538 | 36944 ft | 415 kts | 206° |
| 2026-05-07 11:51 | 41.97156 | -2.20947 | 36947 ft | 415 kts | 206° |
| 2026-05-07 11:51 | 41.91969 | -2.24353 | 36957 ft | 415 kts | 206° |
| 2026-05-07 11:52 | 41.86818 | -2.27730 | 36959 ft | 415 kts | 206° |
| 2026-05-07 11:52 | 41.81624 | -2.31129 | 36956 ft | 415 kts | 206° |
| 2026-05-07 11:53 | 41.76431 | -2.34520 | 36957 ft | 415 kts | 206° |
| 2026-05-07 11:53 | 41.71242 | -2.37904 | 36957 ft | 415 kts | 206° |
| 2026-05-07 11:54 | 41.66050 | -2.41283 | 36959 ft | 415 kts | 206° |
| 2026-05-07 11:54 | 41.60866 | -2.44651 | 36958 ft | 414 kts | 206° |
| 2026-05-07 11:55 | 41.55685 | -2.48012 | 36953 ft | 414 kts | 206° |
| 2026-05-07 11:55 | 41.50503 | -2.51366 | 36951 ft | 414 kts | 206° |
| 2026-05-07 11:56 | 41.45323 | -2.54703 | 36949 ft | 413 kts | 206° |
| 2026-05-07 11:56 | 41.40146 | -2.58029 | 36945 ft | 413 kts | 206° |
| 2026-05-07 11:57 | 41.34969 | -2.61352 | 36948 ft | 413 kts | 206° |
| 2026-05-07 11:57 | 41.29977 | -2.65113 | 36954 ft | 413 kts | 214° |
| 2026-05-07 11:58 | 41.25263 | -2.69490 | 36939 ft | 414 kts | 214° |
| 2026-05-07 11:58 | 41.20542 | -2.73880 | 36944 ft | 414 kts | 214° |
| 2026-05-07 11:59 | 41.15801 | -2.78250 | 36948 ft | 415 kts | 214° |
| 2026-05-07 11:59 | 41.11041 | -2.82615 | 36947 ft | 417 kts | 214° |
| 2026-05-07 12:00 | 41.06260 | -2.86985 | 36942 ft | 418 kts | 214° |
| 2026-05-07 12:00 | 41.01469 | -2.91357 | 36938 ft | 419 kts | 214° |
| 2026-05-07 12:01 | 40.96671 | -2.95728 | 36933 ft | 418 kts | 214° |
| 2026-05-07 12:01 | 40.91879 | -3.00085 | 36942 ft | 417 kts | 214° |
| 2026-05-07 12:02 | 40.87092 | -3.04431 | 36932 ft | 417 kts | 214° |
| 2026-05-07 12:02 | 40.82342 | -3.08734 | 36931 ft | 417 kts | 214° |
| 2026-05-07 12:03 | 40.77554 | -3.13065 | 36931 ft | 417 kts | 214° |
| 2026-05-07 12:03 | 40.72763 | -3.17391 | 36936 ft | 419 kts | 214° |
| 2026-05-07 12:04 | 40.67933 | -3.21745 | 36937 ft | 422 kts | 214° |
| 2026-05-07 12:04 | 40.63071 | -3.26119 | 36937 ft | 424 kts | 214° |
| 2026-05-07 12:05 | 40.58185 | -3.30507 | 36935 ft | 426 kts | 214° |
| 2026-05-07 12:05 | 40.53285 | -3.34899 | 36947 ft | 427 kts | 214° |
| 2026-05-07 12:06 | 40.48379 | -3.39289 | 36934 ft | 426 kts | 214° |
| 2026-05-07 12:06 | 40.43488 | -3.43658 | 36934 ft | 424 kts | 214° |
| 2026-05-07 12:07 | 40.38615 | -3.48004 | 36909 ft | 423 kts | 214° |
| 2026-05-07 12:07 | 40.33757 | -3.52327 | 36905 ft | 421 kts | 215° |
| 2026-05-07 12:08 | 40.28912 | -3.56633 | 36932 ft | 420 kts | 214° |
| 2026-05-07 12:08 | 40.24077 | -3.60922 | 36940 ft | 420 kts | 215° |
| 2026-05-07 12:09 | 40.19239 | -3.65206 | 36938 ft | 420 kts | 215° |
| 2026-05-07 12:09 | 40.14395 | -3.69490 | 36931 ft | 421 kts | 215° |
| 2026-05-07 12:10 | 40.09536 | -3.73775 | 36929 ft | 422 kts | 215° |
| 2026-05-07 12:10 | 40.04683 | -3.78045 | 36906 ft | 424 kts | 215° |
| 2026-05-07 12:11 | 39.99777 | -3.82354 | 36911 ft | 426 kts | 215° |
| 2026-05-07 12:11 | 39.94856 | -3.86671 | 36899 ft | 427 kts | 215° |
| 2026-05-07 12:12 | 39.89916 | -3.90998 | 36909 ft | 428 kts | 215° |
| 2026-05-07 12:12 | 39.84962 | -3.95329 | 36908 ft | 429 kts | 215° |
| 2026-05-07 12:13 | 39.79995 | -3.99666 | 36909 ft | 430 kts | 216° |
| 2026-05-07 12:13 | 39.75867 | -4.03263 | 36902 ft | 430 kts | 216° |
| 2026-05-07 12:14 | 39.70899 | -4.07588 | 36907 ft | 430 kts | 216° |
| 2026-05-07 12:14 | 39.65931 | -4.11913 | 36902 ft | 430 kts | 216° |
| 2026-05-07 12:15 | 39.60969 | -4.16229 | 36913 ft | 429 kts | 216° |
| 2026-05-07 12:15 | 39.56010 | -4.20535 | 36900 ft | 429 kts | 216° |
| 2026-05-07 12:16 | 39.51056 | -4.24830 | 36893 ft | 428 kts | 216° |
| 2026-05-07 12:16 | 39.46105 | -4.29113 | 36888 ft | 428 kts | 216° |
| 2026-05-07 12:17 | 39.41155 | -4.33390 | 36910 ft | 428 kts | 217° |
| 2026-05-07 12:17 | 39.36199 | -4.37664 | 36899 ft | 428 kts | 217° |
| 2026-05-07 12:18 | 39.31236 | -4.41938 | 36908 ft | 429 kts | 217° |
| 2026-05-07 12:18 | 39.26305 | -4.46176 | 36900 ft | 429 kts | 217° |
| 2026-05-07 12:19 | 39.20986 | -4.49719 | 36909 ft | 436 kts | 202° |
| 2026-05-07 12:19 | 39.15002 | -4.51342 | 36905 ft | 442 kts | 193° |
| 2026-05-07 12:20 | 39.08914 | -4.52508 | 36898 ft | 442 kts | 193° |
| 2026-05-07 12:20 | 39.02828 | -4.53737 | 36891 ft | 443 kts | 193° |
| 2026-05-07 12:21 | 38.96747 | -4.55006 | 36891 ft | 443 kts | 194° |
| 2026-05-07 12:21 | 38.90660 | -4.56274 | 36892 ft | 443 kts | 194° |
| 2026-05-07 12:22 | 38.84569 | -4.57543 | 36883 ft | 444 kts | 194° |
| 2026-05-07 12:22 | 38.78474 | -4.58811 | 36890 ft | 444 kts | 194° |
| 2026-05-07 12:23 | 38.72379 | -4.60078 | 36886 ft | 444 kts | 194° |
| 2026-05-07 12:23 | 38.66279 | -4.61343 | 36883 ft | 444 kts | 194° |
| 2026-05-07 12:24 | 38.60171 | -4.62608 | 36685 ft | 448 kts | 195° |
| 2026-05-07 12:24 | 38.57088 | -4.63247 | 36291 ft | 446 kts | 195° |
| 2026-05-07 12:24 | 38.54044 | -4.63872 | 35860 ft | 441 kts | 195° |
| 2026-05-07 12:24 | 38.51026 | -4.64492 | 35441 ft | 438 kts | 195° |
| 2026-05-07 12:25 | 38.48030 | -4.65108 | 35029 ft | 434 kts | 196° |
| 2026-05-07 12:25 | 38.45059 | -4.65719 | 34613 ft | 431 kts | 197° |
| 2026-05-07 12:25 | 38.42106 | -4.66327 | 34204 ft | 428 kts | 197° |
| 2026-05-07 12:25 | 38.39169 | -4.66931 | 33761 ft | 426 kts | 197° |
| 2026-05-07 12:26 | 38.36252 | -4.67532 | 33297 ft | 424 kts | 197° |
| 2026-05-07 12:26 | 38.33353 | -4.68127 | 32872 ft | 420 kts | 198° |
| 2026-05-07 12:26 | 38.30475 | -4.68718 | 32456 ft | 417 kts | 198° |
| 2026-05-07 12:26 | 38.27658 | -4.69295 | 32061 ft | 414 kts | 198° |
| 2026-05-07 12:27 | 38.24823 | -4.69877 | 31665 ft | 411 kts | 198° |
| 2026-05-07 12:27 | 38.22004 | -4.70454 | 31271 ft | 409 kts | 198° |
| 2026-05-07 12:27 | 38.19200 | -4.71028 | 30874 ft | 407 kts | 198° |
| 2026-05-07 12:27 | 38.16411 | -4.71600 | 30493 ft | 405 kts | 198° |
| 2026-05-07 12:28 | 38.13635 | -4.72168 | 30119 ft | 404 kts | 198° |
| 2026-05-07 12:28 | 38.10861 | -4.72736 | 29666 ft | 403 kts | 198° |
| 2026-05-07 12:28 | 38.08102 | -4.73298 | 29228 ft | 400 kts | 198° |
| 2026-05-07 12:28 | 38.05368 | -4.73854 | 28815 ft | 397 kts | 198° |
| 2026-05-07 12:29 | 38.02653 | -4.74407 | 28411 ft | 393 kts | 198° |
| 2026-05-07 12:29 | 37.99963 | -4.74954 | 28014 ft | 390 kts | 197° |
| 2026-05-07 12:29 | 37.97295 | -4.75497 | 27631 ft | 386 kts | 198° |
| 2026-05-07 12:29 | 37.94654 | -4.76032 | 27242 ft | 383 kts | 197° |
| 2026-05-07 12:30 | 37.92033 | -4.76563 | 26858 ft | 380 kts | 197° |
| 2026-05-07 12:30 | 37.89431 | -4.77094 | 26477 ft | 378 kts | 197° |
| 2026-05-07 12:30 | 37.86844 | -4.77621 | 26099 ft | 375 kts | 197° |
| 2026-05-07 12:30 | 37.84272 | -4.78144 | 25736 ft | 373 kts | 197° |
| 2026-05-07 12:31 | 37.81715 | -4.78662 | 25367 ft | 371 kts | 197° |
| 2026-05-07 12:31 | 37.79173 | -4.79176 | 25009 ft | 368 kts | 198° |
| 2026-05-07 12:31 | 37.76809 | -4.80135 | 24634 ft | 348 kts | 218° |
| 2026-05-07 12:31 | 37.74914 | -4.81920 | 24160 ft | 335 kts | 235° |
| 2026-05-07 12:32 | 37.73486 | -4.84184 | 23787 ft | 327 kts | 241° |
| 2026-05-07 12:32 | 37.72169 | -4.86524 | 23419 ft | 325 kts | 242° |
| 2026-05-07 12:32 | 37.70878 | -4.88863 | 22986 ft | 324 kts | 242° |
| 2026-05-07 12:32 | 37.69589 | -4.91182 | 22622 ft | 321 kts | 241° |
| 2026-05-07 12:33 | 37.67015 | -4.95740 | 21899 ft | 316 kts | 240° |
| 2026-05-07 12:33 | 37.65735 | -4.97984 | 21539 ft | 314 kts | 240° |
| 2026-05-07 12:33 | 37.64463 | -5.00210 | 21190 ft | 312 kts | 240° |
| 2026-05-07 12:34 | 37.63159 | -5.02391 | 20840 ft | 313 kts | 233° |
| 2026-05-07 12:34 | 37.61433 | -5.04089 | 20618 ft | 316 kts | 217° |
| 2026-05-07 12:34 | 37.59539 | -5.05427 | 20292 ft | 316 kts | 214° |
| 2026-05-07 12:34 | 37.57606 | -5.06742 | 19964 ft | 315 kts | 214° |
| 2026-05-07 12:35 | 37.55689 | -5.08064 | 19643 ft | 313 kts | 214° |
| 2026-05-07 12:35 | 37.53786 | -5.09394 | 19309 ft | 312 kts | 214° |
| 2026-05-07 12:35 | 37.51869 | -5.10680 | 18976 ft | 314 kts | 206° |
| 2026-05-07 12:35 | 37.49718 | -5.11231 | 18723 ft | 319 kts | 185° |
| 2026-05-07 12:36 | 37.47502 | -5.11214 | 18424 ft | 319 kts | 182° |
| 2026-05-07 12:36 | 37.45287 | -5.11136 | 18103 ft | 318 kts | 182° |
| 2026-05-07 12:36 | 37.43081 | -5.11075 | 17725 ft | 317 kts | 182° |
| 2026-05-07 12:36 | 37.40876 | -5.11029 | 17366 ft | 316 kts | 182° |
| 2026-05-07 12:37 | 37.38683 | -5.10946 | 17025 ft | 316 kts | 176° |
| 2026-05-07 12:37 | 37.36588 | -5.10092 | 16735 ft | 319 kts | 154° |
| 2026-05-07 12:37 | 37.34675 | -5.08682 | 16424 ft | 318 kts | 151° |
| 2026-05-07 12:37 | 37.32788 | -5.07233 | 16091 ft | 317 kts | 151° |
| 2026-05-07 12:38 | 37.30901 | -5.05802 | 15770 ft | 316 kts | 151° |
| 2026-05-07 12:38 | 37.29014 | -5.04390 | 15450 ft | 315 kts | 152° |
| 2026-05-07 12:38 | 37.27119 | -5.03023 | 15124 ft | 313 kts | 158° |
| 2026-05-07 12:38 | 37.25047 | -5.02371 | 14827 ft | 304 kts | 179° |
| 2026-05-07 12:39 | 37.22946 | -5.02299 | 14527 ft | 301 kts | 182° |
| 2026-05-07 12:39 | 37.20853 | -5.02297 | 14211 ft | 300 kts | 182° |
| 2026-05-07 12:39 | 37.18764 | -5.02299 | 13896 ft | 299 kts | 182° |
| 2026-05-07 12:39 | 37.16684 | -5.02292 | 13555 ft | 299 kts | 182° |
| 2026-05-07 12:40 | 37.14642 | -5.02276 | 13233 ft | 298 kts | 182° |
| 2026-05-07 12:40 | 37.12543 | -5.02252 | 12898 ft | 296 kts | 181° |
| 2026-05-07 12:40 | 37.10514 | -5.02224 | 12776 ft | 287 kts | 182° |
| 2026-05-07 12:40 | 37.08546 | -5.02195 | 12652 ft | 279 kts | 181° |
| 2026-05-07 12:41 | 37.06633 | -5.02168 | 12534 ft | 271 kts | 182° |
| 2026-05-07 12:41 | 37.04746 | -5.02144 | 12241 ft | 271 kts | 182° |
| 2026-05-07 12:41 | 37.02868 | -5.02117 | 11971 ft | 269 kts | 181° |
| 2026-05-07 12:41 | 37.00995 | -5.02090 | 11699 ft | 269 kts | 181° |
| 2026-05-07 12:42 | 36.99127 | -5.02063 | 11408 ft | 268 kts | 181° |
| 2026-05-07 12:42 | 36.97275 | -5.02034 | 11257 ft | 262 kts | 181° |
| 2026-05-07 12:42 | 36.95489 | -5.01731 | 11116 ft | 261 kts | 160° |
| 2026-05-07 12:42 | 36.94023 | -5.00451 | 10963 ft | 260 kts | 132° |
| 2026-05-07 12:43 | 36.93192 | -4.98491 | 10732 ft | 261 kts | 106° |
| 2026-05-07 12:43 | 36.93014 | -4.96237 | 10496 ft | 262 kts | 91° |
| 2026-05-07 12:43 | 36.93108 | -4.93969 | 10238 ft | 262 kts | 77° |
| 2026-05-07 12:43 | 36.93918 | -4.91952 | 9980 ft | 262 kts | 46° |
| 2026-05-07 12:44 | 36.95380 | -4.90696 | 9886 ft | 255 kts | 19° |
| 2026-05-07 12:44 | 36.97112 | -4.90297 | 9771 ft | 254 kts | 360° |
| 2026-05-07 12:44 | 36.98887 | -4.90293 | 9662 ft | 256 kts | 357° |
| 2026-05-07 12:44 | 37.00644 | -4.90357 | 9532 ft | 250 kts | 355° |
| 2026-05-07 12:45 | 37.02364 | -4.90414 | 9420 ft | 245 kts | 357° |
| 2026-05-07 12:45 | 37.04054 | -4.90453 | 9307 ft | 242 kts | 357° |
| 2026-05-07 12:45 | 37.05738 | -4.90483 | 9218 ft | 243 kts | 357° |
| 2026-05-07 12:45 | 37.07434 | -4.90510 | 9138 ft | 245 kts | 358° |
| 2026-05-07 12:46 | 37.09141 | -4.90534 | 9034 ft | 246 kts | 357° |
| 2026-05-07 12:46 | 37.10857 | -4.90557 | 8925 ft | 248 kts | 357° |
| 2026-05-07 12:46 | 37.12583 | -4.90579 | 8831 ft | 248 kts | 358° |
| 2026-05-07 12:46 | 37.14311 | -4.90602 | 8746 ft | 249 kts | 358° |
| 2026-05-07 12:47 | 37.16053 | -4.90624 | 8641 ft | 252 kts | 358° |
| 2026-05-07 12:47 | 37.17787 | -4.90353 | 8491 ft | 254 kts | 22° |
| 2026-05-07 12:47 | 37.19181 | -4.89047 | 8423 ft | 252 kts | 54° |
| 2026-05-07 12:47 | 37.19850 | -4.87052 | 8332 ft | 249 kts | 82° |
| 2026-05-07 12:48 | 37.19978 | -4.84909 | 8244 ft | 245 kts | 91° |
| 2026-05-07 12:48 | 37.19760 | -4.82816 | 8098 ft | 241 kts | 117° |
| 2026-05-07 12:48 | 37.18782 | -4.81192 | 8037 ft | 232 kts | 146° |
| 2026-05-07 12:48 | 37.17367 | -4.80316 | 7942 ft | 226 kts | 170° |
| 2026-05-07 12:49 | 37.15816 | -4.80120 | 7880 ft | 224 kts | 180° |
| 2026-05-07 12:49 | 37.14254 | -4.80106 | 7767 ft | 225 kts | 182° |
| 2026-05-07 12:49 | 37.12691 | -4.80117 | 7680 ft | 225 kts | 182° |
| 2026-05-07 12:49 | 37.11133 | -4.80121 | 7581 ft | 223 kts | 181° |
| 2026-05-07 12:50 | 37.09589 | -4.80112 | 7499 ft | 221 kts | 181° |
| 2026-05-07 12:50 | 37.08056 | -4.80101 | 7403 ft | 220 kts | 181° |
| 2026-05-07 12:50 | 37.06533 | -4.80086 | 7308 ft | 218 kts | 182° |
| 2026-05-07 12:50 | 37.05021 | -4.80071 | 7222 ft | 217 kts | 181° |
| 2026-05-07 12:51 | 37.03502 | -4.80056 | 7167 ft | 220 kts | 181° |
| 2026-05-07 12:51 | 37.01962 | -4.80040 | 7071 ft | 222 kts | 182° |
| 2026-05-07 12:51 | 37.00436 | -4.80023 | 6963 ft | 222 kts | 182° |
| 2026-05-07 12:51 | 36.98858 | -4.80005 | 6748 ft | 226 kts | 181° |
| 2026-05-07 12:52 | 36.97301 | -4.79988 | 6542 ft | 227 kts | 181° |
| 2026-05-07 12:52 | 36.95721 | -4.79973 | 6307 ft | 227 kts | 181° |
| 2026-05-07 12:52 | 36.94146 | -4.79955 | 6068 ft | 226 kts | 181° |
| 2026-05-07 12:52 | 36.92581 | -4.79757 | 5828 ft | 229 kts | 165° |
| 2026-05-07 12:53 | 36.91086 | -4.79078 | 5622 ft | 229 kts | 162° |
| 2026-05-07 12:53 | 36.89584 | -4.78399 | 5356 ft | 229 kts | 162° |
| 2026-05-07 12:53 | 36.88084 | -4.77734 | 5133 ft | 229 kts | 163° |
| 2026-05-07 12:53 | 36.86588 | -4.77044 | 4916 ft | 229 kts | 157° |
| 2026-05-07 12:54 | 36.85200 | -4.76143 | 4797 ft | 220 kts | 153° |
| 2026-05-07 12:54 | 36.83884 | -4.75229 | 4627 ft | 213 kts | 153° |
| 2026-05-07 12:54 | 36.82609 | -4.74346 | 4449 ft | 207 kts | 153° |
| 2026-05-07 12:54 | 36.81347 | -4.73477 | 4208 ft | 207 kts | 153° |
| 2026-05-07 12:55 | 36.80090 | -4.72624 | 3966 ft | 204 kts | 154° |
| 2026-05-07 12:55 | 36.78868 | -4.71796 | 3736 ft | 196 kts | 153° |
| 2026-05-07 12:55 | 36.77712 | -4.70950 | 3495 ft | 191 kts | 141° |
| 2026-05-07 12:55 | 36.76968 | -4.69613 | 3301 ft | 186 kts | 119° |
| 2026-05-07 12:56 | 36.76392 | -4.68196 | 3089 ft | 179 kts | 120° |
| 2026-05-07 12:56 | 36.75835 | -4.66849 | 2834 ft | 170 kts | 120° |
| 2026-05-07 12:56 | 36.75312 | -4.65586 | 2634 ft | 159 kts | 118° |
| 2026-05-07 12:56 | 36.74818 | -4.64392 | 2528 ft | 154 kts | 119° |
| 2026-05-07 12:57 | 36.74304 | -4.63169 | 2306 ft | 158 kts | 120° |
| 2026-05-07 12:57 | 36.73817 | -4.62008 | 2098 ft | 147 kts | 120° |
| 2026-05-07 12:57 | 36.73355 | -4.60907 | 1892 ft | 140 kts | 120° |
| 2026-05-07 12:57 | 36.72910 | -4.59851 | 1726 ft | 137 kts | 119° |
| 2026-05-07 12:58 | 36.72467 | -4.58795 | 1535 ft | 140 kts | 120° |
| 2026-05-07 12:58 | 36.72008 | -4.57705 | 1346 ft | 148 kts | 119° |
| 2026-05-07 12:58 | 36.71538 | -4.56583 | 1134 ft | 142 kts | 118° |
| 2026-05-07 12:58 | 36.71087 | -4.55511 | 933 ft | 138 kts | 119° |
| 2026-05-07 12:59 | 36.70647 | -4.54457 | 711 ft | 136 kts | 118° |
| 2026-05-07 12:59 | 36.70215 | -4.53424 | 537 ft | 136 kts | 118° |
| 2026-05-07 12:59 | 36.69783 | -4.52375 | 361 ft | 136 kts | 118° |
| 2026-05-07 12:59 | 36.69337 | -4.51332 | 205 ft | 137 kts | 118° |
| 2026-05-07 13:00 | 36.68897 | -4.50274 | 49 ft | 133 kts | 118° |
| 2026-05-07 13:00 | 36.68528 | -4.49407 | 46 ft | 92 kts | 117° |
| 2026-05-07 13:00 | 36.68317 | -4.48978 | 43 ft | 34 kts | 139° |
| 2026-05-07 13:00 | 36.68181 | -4.48860 | 38 ft | 17 kts | 159° |
| 2026-05-07 13:01 | 36.68141 | -4.48921 | 39 ft | 11 kts | 282° |
| 2026-05-07 13:01 | 36.68174 | -4.49004 | 37 ft | 11 kts | 296° |
| 2026-05-07 13:01 | 36.68209 | -4.49092 | 39 ft | 13 kts | 297° |
| 2026-05-07 13:01 | 36.68260 | -4.49212 | 39 ft | 18 kts | 299° |
| 2026-05-07 13:02 | 36.68263 | -4.49340 | 38 ft | 15 kts | 223° |
| 2026-05-07 13:02 | 36.68184 | -4.49425 | 41 ft | 15 kts | 221° |
| 2026-05-07 13:02 | 36.68107 | -4.49510 | 41 ft | 15 kts | 221° |
| 2026-05-07 13:02 | 36.68023 | -4.49603 | 41 ft | 17 kts | 222° |
| 2026-05-07 13:03 | 36.67931 | -4.49704 | 41 ft | 18 kts | 221° |
| 2026-05-07 13:03 | 36.67836 | -4.49811 | 41 ft | 15 kts | 221° |
| 2026-05-07 13:03 | 36.67753 | -4.49839 | 41 ft | 13 kts | 142° |
| 2026-05-07 13:03 | 36.67712 | -4.49783 | 41 ft | 13 kts | 132° |
| 2026-05-07 13:04 | 36.67652 | -4.49700 | 41 ft | 14 kts | 132° |
| 2026-05-07 13:04 | 36.67584 | -4.49604 | 41 ft | 16 kts | 131° |
| 2026-05-07 13:04 | 36.67544 | -4.49527 | 41 ft | 7 kts | 86° |
| 2026-05-07 13:04 | 36.67555 | -4.49505 | 40 ft | 3 kts | 43° |
| 2026-05-07 13:05 | 36.67584 | -4.49474 | 41 ft | 8 kts | 41° |
| 2026-05-07 13:05 | 36.67617 | -4.49438 | 41 ft | 7 kts | 41° |
| 2026-05-07 13:05 | 36.67632 | -4.49422 | 41 ft | 0 kts | 41° |